sensor_id;sensor_type;location;lat;lon;timestamp;temperature;humidity
17728;DHT22;8984;49.268;12.302;2022-08-21T00:00:58;20.40;99.90
17728;DHT22;8984;49.268;12.302;2022-08-21T00:03:27;20.40;99.90
17728;DHT22;8984;49.268;12.302;2022-08-21T00:05:54;20.30;99.90
17728;DHT22;8984;49.268;12.302;2022-08-21T00:08:21;20.30;99.90
17728;DHT22;8984;49.268;12.302;2022-08-21T00:10:48;20.30;99.90
17728;DHT22;8984;49.268;12.302;2022-08-21T00:13:16;20.30;99.90
17728;DHT22;8984;49.268;12.302;2022-08-21T00:15:43;20.30;99.90
17728;DHT22;8984;49.268;12.302;2022-08-21T00:18:10;20.20;99.90
17728;DHT22;8984;49.268;12.302;2022-08-21T00:20:43;20.20;99.90
17728;DHT22;8984;49.268;12.302;2022-08-21T00:23:10;20.20;99.90
17728;DHT22;8984;49.268;12.302;2022-08-21T00:25:38;20.20;99.90
17728;DHT22;8984;49.268;12.302;2022-08-21T00:28:05;20.20;99.90
17728;DHT22;8984;49.268;12.302;2022-08-21T00:30:32;20.10;99.90
17728;DHT22;8984;49.268;12.302;2022-08-21T00:32:59;20.00;99.90
17728;DHT22;8984;49.268;12.302;2022-08-21T00:35:29;20.00;99.90
17728;DHT22;8984;49.268;12.302;2022-08-21T00:37:58;19.90;99.90
17728;DHT22;8984;49.268;12.302;2022-08-21T00:40:32;19.90;99.90
17728;DHT22;8984;49.268;12.302;2022-08-21T00:43:03;19.80;99.90
17728;DHT22;8984;49.268;12.302;2022-08-21T00:45:31;19.80;99.90
17728;DHT22;8984;49.268;12.302;2022-08-21T00:47:58;19.80;99.90
17728;DHT22;8984;49.268;12.302;2022-08-21T00:50:29;19.80;99.90
17728;DHT22;8984;49.268;12.302;2022-08-21T00:52:58;19.80;99.90
17728;DHT22;8984;49.268;12.302;2022-08-21T00:55:29;19.90;99.90
17728;DHT22;8984;49.268;12.302;2022-08-21T00:57:58;19.80;99.90
17728;DHT22;8984;49.268;12.302;2022-08-21T01:00:28;19.80;99.90
17728;DHT22;8984;49.268;12.302;2022-08-21T01:02:56;19.80;99.90
17728;DHT22;8984;49.268;12.302;2022-08-21T01:05:23;19.80;99.90
17728;DHT22;8984;49.268;12.302;2022-08-21T01:07:50;19.80;99.90
17728;DHT22;8984;49.268;12.302;2022-08-21T01:10:19;19.80;99.90
17728;DHT22;8984;49.268;12.302;2022-08-21T01:12:46;19.80;99.90
17728;DHT22;8984;49.268;12.302;2022-08-21T01:15:14;19.90;99.90
17728;DHT22;8984;49.268;12.302;2022-08-21T01:17:42;19.70;99.90
17728;DHT22;8984;49.268;12.302;2022-08-21T01:20:11;19.60;99.90
17728;DHT22;8984;49.268;12.302;2022-08-21T01:22:39;19.60;99.90
17728;DHT22;8984;49.268;12.302;2022-08-21T01:25:08;19.60;99.90
17728;DHT22;8984;49.268;12.302;2022-08-21T01:27:38;19.70;99.90
17728;DHT22;8984;49.268;12.302;2022-08-21T01:30:11;19.70;99.90
17728;DHT22;8984;49.268;12.302;2022-08-21T01:32:39;19.70;99.90
17728;DHT22;8984;49.268;12.302;2022-08-21T01:35:06;19.70;99.90
17728;DHT22;8984;49.268;12.302;2022-08-21T01:37:34;19.70;99.90
17728;DHT22;8984;49.268;12.302;2022-08-21T01:40:03;19.60;99.90
17728;DHT22;8984;49.268;12.302;2022-08-21T01:42:31;19.60;99.90
17728;DHT22;8984;49.268;12.302;2022-08-21T01:44:58;19.60;99.90
17728;DHT22;8984;49.268;12.302;2022-08-21T01:47:26;19.60;99.90
17728;DHT22;8984;49.268;12.302;2022-08-21T01:49:54;19.70;99.90
17728;DHT22;8984;49.268;12.302;2022-08-21T01:52:21;19.70;99.90
17728;DHT22;8984;49.268;12.302;2022-08-21T01:54:48;19.70;99.90
17728;DHT22;8984;49.268;12.302;2022-08-21T01:57:17;19.70;99.90
17728;DHT22;8984;49.268;12.302;2022-08-21T01:59:44;19.70;99.90
17728;DHT22;8984;49.268;12.302;2022-08-21T02:02:10;19.70;99.90
17728;DHT22;8984;49.268;12.302;2022-08-21T02:04:37;19.70;99.90
17728;DHT22;8984;49.268;12.302;2022-08-21T02:07:04;19.70;99.90
17728;DHT22;8984;49.268;12.302;2022-08-21T02:09:31;19.80;99.90
17728;DHT22;8984;49.268;12.302;2022-08-21T02:11:59;19.80;99.90
17728;DHT22;8984;49.268;12.302;2022-08-21T02:14:27;19.70;99.90
17728;DHT22;8984;49.268;12.302;2022-08-21T02:16:54;19.80;99.90
17728;DHT22;8984;49.268;12.302;2022-08-21T02:19:21;19.70;99.90
17728;DHT22;8984;49.268;12.302;2022-08-21T02:21:48;19.80;99.90
17728;DHT22;8984;49.268;12.302;2022-08-21T02:24:14;19.80;99.90
17728;DHT22;8984;49.268;12.302;2022-08-21T02:26:41;19.80;99.90
17728;DHT22;8984;49.268;12.302;2022-08-21T02:29:08;19.80;99.90
17728;DHT22;8984;49.268;12.302;2022-08-21T02:31:36;19.80;99.90
17728;DHT22;8984;49.268;12.302;2022-08-21T02:34:04;19.70;99.90
17728;DHT22;8984;49.268;12.302;2022-08-21T02:36:31;19.70;99.90
17728;DHT22;8984;49.268;12.302;2022-08-21T02:38:58;19.60;99.90
17728;DHT22;8984;49.268;12.302;2022-08-21T02:41:25;19.70;99.90
17728;DHT22;8984;49.268;12.302;2022-08-21T02:43:52;19.70;99.90
17728;DHT22;8984;49.268;12.302;2022-08-21T02:46:19;19.70;99.90
17728;DHT22;8984;49.268;12.302;2022-08-21T02:48:48;19.70;99.90
17728;DHT22;8984;49.268;12.302;2022-08-21T02:51:17;19.70;99.90
17728;DHT22;8984;49.268;12.302;2022-08-21T02:53:45;19.80;99.90
17728;DHT22;8984;49.268;12.302;2022-08-21T02:56:16;19.70;99.90
17728;DHT22;8984;49.268;12.302;2022-08-21T02:58:45;19.80;99.90
17728;DHT22;8984;49.268;12.302;2022-08-21T03:01:13;19.80;99.90
17728;DHT22;8984;49.268;12.302;2022-08-21T03:03:42;19.90;99.90
17728;DHT22;8984;49.268;12.302;2022-08-21T03:06:13;19.80;99.90
17728;DHT22;8984;49.268;12.302;2022-08-21T03:08:41;19.80;99.90
17728;DHT22;8984;49.268;12.302;2022-08-21T03:11:10;19.80;99.90
17728;DHT22;8984;49.268;12.302;2022-08-21T03:13:37;19.80;99.90
17728;DHT22;8984;49.268;12.302;2022-08-21T03:16:05;19.80;99.90
17728;DHT22;8984;49.268;12.302;2022-08-21T03:18:33;19.80;99.90
17728;DHT22;8984;49.268;12.302;2022-08-21T03:21:01;19.80;99.90
17728;DHT22;8984;49.268;12.302;2022-08-21T03:23:29;19.80;99.90
17728;DHT22;8984;49.268;12.302;2022-08-21T03:25:56;19.90;99.90
17728;DHT22;8984;49.268;12.302;2022-08-21T03:28:23;19.90;99.90
17728;DHT22;8984;49.268;12.302;2022-08-21T03:30:51;19.90;99.90
17728;DHT22;8984;49.268;12.302;2022-08-21T03:33:19;19.90;99.90
17728;DHT22;8984;49.268;12.302;2022-08-21T03:35:48;19.90;99.90
17728;DHT22;8984;49.268;12.302;2022-08-21T03:38:18;20.00;99.90
17728;DHT22;8984;49.268;12.302;2022-08-21T03:40:47;19.90;99.90
17728;DHT22;8984;49.268;12.302;2022-08-21T03:43:14;19.90;99.90
17728;DHT22;8984;49.268;12.302;2022-08-21T03:45:41;19.90;99.90
17728;DHT22;8984;49.268;12.302;2022-08-21T03:48:08;20.00;99.90
17728;DHT22;8984;49.268;12.302;2022-08-21T03:50:39;19.90;99.90
17728;DHT22;8984;49.268;12.302;2022-08-21T03:53:07;19.90;99.90
17728;DHT22;8984;49.268;12.302;2022-08-21T03:55:34;19.90;99.90
17728;DHT22;8984;49.268;12.302;2022-08-21T03:58:03;19.90;99.90
17728;DHT22;8984;49.268;12.302;2022-08-21T04:00:31;19.90;99.90
17728;DHT22;8984;49.268;12.302;2022-08-21T04:02:58;19.90;99.90
17728;DHT22;8984;49.268;12.302;2022-08-21T04:05:25;19.90;99.90
17728;DHT22;8984;49.268;12.302;2022-08-21T04:07:56;19.90;99.90
17728;DHT22;8984;49.268;12.302;2022-08-21T04:10:23;19.90;99.90
17728;DHT22;8984;49.268;12.302;2022-08-21T04:12:51;19.90;99.90
17728;DHT22;8984;49.268;12.302;2022-08-21T04:15:21;19.90;99.90
17728;DHT22;8984;49.268;12.302;2022-08-21T04:17:48;19.90;99.90
17728;DHT22;8984;49.268;12.302;2022-08-21T04:20:15;19.90;99.90
17728;DHT22;8984;49.268;12.302;2022-08-21T04:22:43;19.90;99.90
17728;DHT22;8984;49.268;12.302;2022-08-21T04:25:11;20.00;99.90
17728;DHT22;8984;49.268;12.302;2022-08-21T04:27:39;20.00;99.90
17728;DHT22;8984;49.268;12.302;2022-08-21T04:30:07;19.90;99.90
17728;DHT22;8984;49.268;12.302;2022-08-21T04:32:38;20.00;99.90
17728;DHT22;8984;49.268;12.302;2022-08-21T04:35:07;20.00;99.90
17728;DHT22;8984;49.268;12.302;2022-08-21T04:37:35;19.90;99.90
17728;DHT22;8984;49.268;12.302;2022-08-21T04:40:02;19.90;99.90
17728;DHT22;8984;49.268;12.302;2022-08-21T04:42:29;20.00;99.90
17728;DHT22;8984;49.268;12.302;2022-08-21T04:44:56;20.00;99.90
17728;DHT22;8984;49.268;12.302;2022-08-21T04:47:23;20.00;99.90
17728;DHT22;8984;49.268;12.302;2022-08-21T04:49:51;20.10;99.90
17728;DHT22;8984;49.268;12.302;2022-08-21T04:52:21;20.10;99.90
17728;DHT22;8984;49.268;12.302;2022-08-21T04:54:50;20.20;99.90
17728;DHT22;8984;49.268;12.302;2022-08-21T04:57:19;20.10;99.90
17728;DHT22;8984;49.268;12.302;2022-08-21T04:59:49;20.20;99.90
17728;DHT22;8984;49.268;12.302;2022-08-21T05:02:17;20.20;99.90
17728;DHT22;8984;49.268;12.302;2022-08-21T05:04:51;20.20;99.90
17728;DHT22;8984;49.268;12.302;2022-08-21T05:07:23;20.20;99.90
17728;DHT22;8984;49.268;12.302;2022-08-21T05:09:53;20.20;99.90
17728;DHT22;8984;49.268;12.302;2022-08-21T05:12:21;20.20;99.90
17728;DHT22;8984;49.268;12.302;2022-08-21T05:14:48;20.20;99.90
17728;DHT22;8984;49.268;12.302;2022-08-21T05:17:15;20.20;99.90
17728;DHT22;8984;49.268;12.302;2022-08-21T05:19:42;20.20;99.90
17728;DHT22;8984;49.268;12.302;2022-08-21T05:22:10;20.20;99.90
17728;DHT22;8984;49.268;12.302;2022-08-21T05:24:37;20.20;99.90
17728;DHT22;8984;49.268;12.302;2022-08-21T05:27:04;20.30;99.90
17728;DHT22;8984;49.268;12.302;2022-08-21T05:29:32;20.30;99.90
17728;DHT22;8984;49.268;12.302;2022-08-21T05:32:00;20.30;99.90
17728;DHT22;8984;49.268;12.302;2022-08-21T05:34:27;20.30;99.90
17728;DHT22;8984;49.268;12.302;2022-08-21T05:36:53;20.30;99.90
17728;DHT22;8984;49.268;12.302;2022-08-21T05:39:21;20.40;99.90
17728;DHT22;8984;49.268;12.302;2022-08-21T05:41:48;20.40;99.90
17728;DHT22;8984;49.268;12.302;2022-08-21T05:44:15;20.50;99.90
17728;DHT22;8984;49.268;12.302;2022-08-21T05:46:42;20.50;99.90
17728;DHT22;8984;49.268;12.302;2022-08-21T05:49:09;20.50;99.90
17728;DHT22;8984;49.268;12.302;2022-08-21T05:51:35;20.50;99.90
17728;DHT22;8984;49.268;12.302;2022-08-21T05:54:03;20.60;99.90
17728;DHT22;8984;49.268;12.302;2022-08-21T05:56:31;20.60;99.90
17728;DHT22;8984;49.268;12.302;2022-08-21T05:58:57;20.60;99.90
17728;DHT22;8984;49.268;12.302;2022-08-21T06:01:25;20.60;99.90
17728;DHT22;8984;49.268;12.302;2022-08-21T06:03:52;20.60;99.90
17728;DHT22;8984;49.268;12.302;2022-08-21T06:06:18;20.70;99.90
17728;DHT22;8984;49.268;12.302;2022-08-21T06:08:45;20.70;99.90
17728;DHT22;8984;49.268;12.302;2022-08-21T06:11:12;20.70;99.90
17728;DHT22;8984;49.268;12.302;2022-08-21T06:13:40;20.80;99.90
17728;DHT22;8984;49.268;12.302;2022-08-21T06:16:09;20.80;99.90
17728;DHT22;8984;49.268;12.302;2022-08-21T06:18:38;20.90;99.90
17728;DHT22;8984;49.268;12.302;2022-08-21T06:21:05;20.90;99.90
17728;DHT22;8984;49.268;12.302;2022-08-21T06:23:33;20.90;99.90
17728;DHT22;8984;49.268;12.302;2022-08-21T06:26:00;20.90;99.90
17728;DHT22;8984;49.268;12.302;2022-08-21T06:28:27;20.90;99.90
17728;DHT22;8984;49.268;12.302;2022-08-21T06:30:55;21.00;99.90
17728;DHT22;8984;49.268;12.302;2022-08-21T06:33:22;21.00;99.90
17728;DHT22;8984;49.268;12.302;2022-08-21T06:35:50;21.00;99.90
17728;DHT22;8984;49.268;12.302;2022-08-21T06:38:17;21.10;99.90
17728;DHT22;8984;49.268;12.302;2022-08-21T06:40:45;21.10;99.90
17728;DHT22;8984;49.268;12.302;2022-08-21T06:43:13;21.10;99.90
17728;DHT22;8984;49.268;12.302;2022-08-21T06:45:40;21.10;99.90
17728;DHT22;8984;49.268;12.302;2022-08-21T06:48:08;21.10;99.90
17728;DHT22;8984;49.268;12.302;2022-08-21T06:50:36;21.10;99.90
17728;DHT22;8984;49.268;12.302;2022-08-21T06:53:05;20.90;99.90
17728;DHT22;8984;49.268;12.302;2022-08-21T06:55:33;20.80;99.90
17728;DHT22;8984;49.268;12.302;2022-08-21T06:58:00;20.80;99.90
17728;DHT22;8984;49.268;12.302;2022-08-21T07:00:27;20.70;99.90
17728;DHT22;8984;49.268;12.302;2022-08-21T07:02:54;20.60;99.90
17728;DHT22;8984;49.268;12.302;2022-08-21T07:05:25;20.70;99.90
17728;DHT22;8984;49.268;12.302;2022-08-21T07:07:52;20.80;99.90
17728;DHT22;8984;49.268;12.302;2022-08-21T07:10:19;20.90;99.90
17728;DHT22;8984;49.268;12.302;2022-08-21T07:12:45;20.90;99.90
17728;DHT22;8984;49.268;12.302;2022-08-21T07:15:12;20.90;99.90
17728;DHT22;8984;49.268;12.302;2022-08-21T07:17:39;21.10;99.90
17728;DHT22;8984;49.268;12.302;2022-08-21T07:20:11;21.10;99.90
17728;DHT22;8984;49.268;12.302;2022-08-21T07:22:40;21.10;99.90
17728;DHT22;8984;49.268;12.302;2022-08-21T07:25:08;21.10;99.90
17728;DHT22;8984;49.268;12.302;2022-08-21T07:27:35;21.10;99.90
17728;DHT22;8984;49.268;12.302;2022-08-21T07:30:03;21.00;99.90
17728;DHT22;8984;49.268;12.302;2022-08-21T07:32:30;21.00;99.90
17728;DHT22;8984;49.268;12.302;2022-08-21T07:34:57;21.10;99.90
17728;DHT22;8984;49.268;12.302;2022-08-21T07:37:24;21.10;99.90
17728;DHT22;8984;49.268;12.302;2022-08-21T07:39:52;21.20;99.90
17728;DHT22;8984;49.268;12.302;2022-08-21T07:42:19;21.20;99.90
17728;DHT22;8984;49.268;12.302;2022-08-21T07:44:46;21.30;99.90
17728;DHT22;8984;49.268;12.302;2022-08-21T07:47:13;21.30;99.90
17728;DHT22;8984;49.268;12.302;2022-08-21T07:49:40;21.40;99.90
17728;DHT22;8984;49.268;12.302;2022-08-21T07:52:07;21.30;99.90
17728;DHT22;8984;49.268;12.302;2022-08-21T07:54:34;21.40;99.90
17728;DHT22;8984;49.268;12.302;2022-08-21T07:57:02;21.30;99.90
17728;DHT22;8984;49.268;12.302;2022-08-21T07:59:29;21.30;99.90
17728;DHT22;8984;49.268;12.302;2022-08-21T08:01:56;21.30;99.90
17728;DHT22;8984;49.268;12.302;2022-08-21T08:04:23;21.30;99.90
17728;DHT22;8984;49.268;12.302;2022-08-21T08:06:50;21.30;99.90
17728;DHT22;8984;49.268;12.302;2022-08-21T08:09:16;21.40;99.90
17728;DHT22;8984;49.268;12.302;2022-08-21T08:11:43;21.30;99.90
17728;DHT22;8984;49.268;12.302;2022-08-21T08:14:12;21.30;99.90
17728;DHT22;8984;49.268;12.302;2022-08-21T08:16:38;21.20;99.90
17728;DHT22;8984;49.268;12.302;2022-08-21T08:19:05;21.10;99.90
17728;DHT22;8984;49.268;12.302;2022-08-21T08:21:32;21.20;99.90
17728;DHT22;8984;49.268;12.302;2022-08-21T08:23:59;21.20;99.90
17728;DHT22;8984;49.268;12.302;2022-08-21T08:26:26;21.20;99.90
17728;DHT22;8984;49.268;12.302;2022-08-21T08:28:53;21.20;99.90
17728;DHT22;8984;49.268;12.302;2022-08-21T08:31:21;21.30;99.90
17728;DHT22;8984;49.268;12.302;2022-08-21T08:33:49;21.40;99.90
17728;DHT22;8984;49.268;12.302;2022-08-21T08:36:17;21.50;99.90
17728;DHT22;8984;49.268;12.302;2022-08-21T08:38:45;21.70;99.90
17728;DHT22;8984;49.268;12.302;2022-08-21T08:41:14;21.70;99.90
17728;DHT22;8984;49.268;12.302;2022-08-21T08:43:44;21.80;99.90
17728;DHT22;8984;49.268;12.302;2022-08-21T08:46:14;21.90;99.90
17728;DHT22;8984;49.268;12.302;2022-08-21T08:48:49;21.90;99.90
17728;DHT22;8984;49.268;12.302;2022-08-21T08:51:23;22.00;99.90
17728;DHT22;8984;49.268;12.302;2022-08-21T08:53:52;22.10;99.90
17728;DHT22;8984;49.268;12.302;2022-08-21T08:56:28;22.20;99.90
17728;DHT22;8984;49.268;12.302;2022-08-21T08:58:59;22.40;99.90
17728;DHT22;8984;49.268;12.302;2022-08-21T09:01:26;22.50;99.90
17728;DHT22;8984;49.268;12.302;2022-08-21T09:03:56;22.70;99.90
17728;DHT22;8984;49.268;12.302;2022-08-21T09:06:41;22.70;99.90
17728;DHT22;8984;49.268;12.302;2022-08-21T09:09:22;22.90;99.90
17728;DHT22;8984;49.268;12.302;2022-08-21T09:11:59;23.10;99.90
17728;DHT22;8984;49.268;12.302;2022-08-21T09:14:36;23.30;99.90
17728;DHT22;8984;49.268;12.302;2022-08-21T09:17:13;23.40;99.90
17728;DHT22;8984;49.268;12.302;2022-08-21T09:19:55;23.50;99.90
17728;DHT22;8984;49.268;12.302;2022-08-21T09:22:33;23.70;99.90
17728;DHT22;8984;49.268;12.302;2022-08-21T09:25:10;23.60;99.90
17728;DHT22;8984;49.268;12.302;2022-08-21T09:27:38;23.70;99.90
17728;DHT22;8984;49.268;12.302;2022-08-21T09:30:07;23.60;99.90
17728;DHT22;8984;49.268;12.302;2022-08-21T09:32:36;23.50;99.90
17728;DHT22;8984;49.268;12.302;2022-08-21T09:35:08;23.60;99.90
17728;DHT22;8984;49.268;12.302;2022-08-21T09:37:46;23.70;99.90
17728;DHT22;8984;49.268;12.302;2022-08-21T09:40:29;23.70;99.90
17728;DHT22;8984;49.268;12.302;2022-08-21T09:42:58;23.70;99.90
17728;DHT22;8984;49.268;12.302;2022-08-21T09:45:25;23.80;99.90
17728;DHT22;8984;49.268;12.302;2022-08-21T09:47:52;24.00;99.90
17728;DHT22;8984;49.268;12.302;2022-08-21T09:50:23;23.70;99.90
17728;DHT22;8984;49.268;12.302;2022-08-21T09:52:53;23.70;99.90
17728;DHT22;8984;49.268;12.302;2022-08-21T09:55:27;23.60;99.90
17728;DHT22;8984;49.268;12.302;2022-08-21T09:58:12;23.70;99.90
17728;DHT22;8984;49.268;12.302;2022-08-21T10:00:41;23.90;99.90
17728;DHT22;8984;49.268;12.302;2022-08-21T10:03:16;23.90;99.90
17728;DHT22;8984;49.268;12.302;2022-08-21T10:05:54;24.10;99.90
17728;DHT22;8984;49.268;12.302;2022-08-21T10:08:23;24.40;99.90
17728;DHT22;8984;49.268;12.302;2022-08-21T10:10:54;24.50;99.90
17728;DHT22;8984;49.268;12.302;2022-08-21T10:13:28;25.00;99.90
17728;DHT22;8984;49.268;12.302;2022-08-21T10:16:10;24.90;99.90
17728;DHT22;8984;49.268;12.302;2022-08-21T10:18:41;24.80;99.90
17728;DHT22;8984;49.268;12.302;2022-08-21T10:21:18;24.60;99.90
17728;DHT22;8984;49.268;12.302;2022-08-21T10:24:00;24.80;99.90
17728;DHT22;8984;49.268;12.302;2022-08-21T10:26:41;24.70;99.90
17728;DHT22;8984;49.268;12.302;2022-08-21T10:29:28;24.80;99.90
17728;DHT22;8984;49.268;12.302;2022-08-21T10:32:05;24.60;99.90
17728;DHT22;8984;49.268;12.302;2022-08-21T10:34:43;24.50;99.90
17728;DHT22;8984;49.268;12.302;2022-08-21T10:37:22;24.30;99.90
17728;DHT22;8984;49.268;12.302;2022-08-21T10:40:00;24.50;99.90
17728;DHT22;8984;49.268;12.302;2022-08-21T10:42:35;24.70;99.90
17728;DHT22;8984;49.268;12.302;2022-08-21T10:45:10;24.60;99.90
17728;DHT22;8984;49.268;12.302;2022-08-21T10:47:46;24.50;99.90
17728;DHT22;8984;49.268;12.302;2022-08-21T10:50:19;24.70;99.90
17728;DHT22;8984;49.268;12.302;2022-08-21T10:53:28;25.00;99.90
17728;DHT22;8984;49.268;12.302;2022-08-21T10:56:02;25.00;99.90
17728;DHT22;8984;49.268;12.302;2022-08-21T10:58:34;25.20;99.90
17728;DHT22;8984;49.268;12.302;2022-08-21T11:01:08;25.50;99.90
17728;DHT22;8984;49.268;12.302;2022-08-21T11:03:41;25.40;99.90
17728;DHT22;8984;49.268;12.302;2022-08-21T11:06:14;25.60;99.90
17728;DHT22;8984;49.268;12.302;2022-08-21T11:08:45;25.80;99.90
17728;DHT22;8984;49.268;12.302;2022-08-21T11:11:18;26.00;99.90
17728;DHT22;8984;49.268;12.302;2022-08-21T11:13:50;26.10;99.90
17728;DHT22;8984;49.268;12.302;2022-08-21T11:16:25;26.20;99.90
17728;DHT22;8984;49.268;12.302;2022-08-21T11:18:57;26.10;99.90
17728;DHT22;8984;49.268;12.302;2022-08-21T11:21:37;26.10;99.90
17728;DHT22;8984;49.268;12.302;2022-08-21T11:24:17;26.00;99.90
17728;DHT22;8984;49.268;12.302;2022-08-21T11:26:49;26.00;99.90
17728;DHT22;8984;49.268;12.302;2022-08-21T11:29:23;25.90;99.90
17728;DHT22;8984;49.268;12.302;2022-08-21T11:32:01;26.30;99.90
17728;DHT22;8984;49.268;12.302;2022-08-21T11:34:39;26.50;99.90
17728;DHT22;8984;49.268;12.302;2022-08-21T11:37:13;26.60;99.90
17728;DHT22;8984;49.268;12.302;2022-08-21T11:39:49;26.60;99.90
17728;DHT22;8984;49.268;12.302;2022-08-21T11:42:24;26.50;99.90
17728;DHT22;8984;49.268;12.302;2022-08-21T11:45:00;26.40;99.90
17728;DHT22;8984;49.268;12.302;2022-08-21T11:47:35;26.40;99.90
17728;DHT22;8984;49.268;12.302;2022-08-21T11:50:14;26.30;99.90
17728;DHT22;8984;49.268;12.302;2022-08-21T11:52:45;26.40;99.90
17728;DHT22;8984;49.268;12.302;2022-08-21T11:55:19;26.50;99.90
17728;DHT22;8984;49.268;12.302;2022-08-21T11:57:54;26.50;99.90
17728;DHT22;8984;49.268;12.302;2022-08-21T12:00:24;26.70;99.90
17728;DHT22;8984;49.268;12.302;2022-08-21T12:02:56;26.70;99.90
17728;DHT22;8984;49.268;12.302;2022-08-21T12:05:29;26.80;99.90
17728;DHT22;8984;49.268;12.302;2022-08-21T12:08:06;27.00;99.90
17728;DHT22;8984;49.268;12.302;2022-08-21T12:10:37;27.10;99.90
17728;DHT22;8984;49.268;12.302;2022-08-21T12:13:11;27.20;99.90
17728;DHT22;8984;49.268;12.302;2022-08-21T12:15:40;27.50;99.90
17728;DHT22;8984;49.268;12.302;2022-08-21T12:18:21;27.40;99.90
17728;DHT22;8984;49.268;12.302;2022-08-21T12:20:59;27.60;99.90
17728;DHT22;8984;49.268;12.302;2022-08-21T12:23:29;27.60;99.90
17728;DHT22;8984;49.268;12.302;2022-08-21T12:28:44;27.70;99.90
17728;DHT22;8984;49.268;12.302;2022-08-21T12:31:23;27.60;99.90
17728;DHT22;8984;49.268;12.302;2022-08-21T12:33:57;27.60;99.90
17728;DHT22;8984;49.268;12.302;2022-08-21T12:36:30;28.00;99.90
17728;DHT22;8984;49.268;12.302;2022-08-21T12:39:04;28.20;99.90
17728;DHT22;8984;49.268;12.302;2022-08-21T12:41:44;27.70;99.90
17728;DHT22;8984;49.268;12.302;2022-08-21T12:44:14;27.80;99.90
17728;DHT22;8984;49.268;12.302;2022-08-21T12:46:46;28.00;99.90
17728;DHT22;8984;49.268;12.302;2022-08-21T12:49:18;27.60;99.90
17728;DHT22;8984;49.268;12.302;2022-08-21T12:51:54;27.70;99.90
17728;DHT22;8984;49.268;12.302;2022-08-21T12:54:24;28.00;99.90
17728;DHT22;8984;49.268;12.302;2022-08-21T12:57:00;27.90;99.90
17728;DHT22;8984;49.268;12.302;2022-08-21T12:59:29;27.80;99.90
17728;DHT22;8984;49.268;12.302;2022-08-21T13:01:57;28.10;99.90
17728;DHT22;8984;49.268;12.302;2022-08-21T13:04:32;27.90;99.90
17728;DHT22;8984;49.268;12.302;2022-08-21T13:07:00;28.00;99.90
17728;DHT22;8984;49.268;12.302;2022-08-21T13:09:29;28.20;99.90
17728;DHT22;8984;49.268;12.302;2022-08-21T13:11:56;28.30;99.90
17728;DHT22;8984;49.268;12.302;2022-08-21T13:14:28;27.80;99.90
17728;DHT22;8984;49.268;12.302;2022-08-21T13:16:58;28.20;99.90
17728;DHT22;8984;49.268;12.302;2022-08-21T13:19:26;28.50;99.00
17728;DHT22;8984;49.268;12.302;2022-08-21T13:21:55;28.50;99.00
17728;DHT22;8984;49.268;12.302;2022-08-21T13:24:24;28.80;99.10
17728;DHT22;8984;49.268;12.302;2022-08-21T13:26:52;28.80;99.00
17728;DHT22;8984;49.268;12.302;2022-08-21T13:29:22;28.90;98.90
17728;DHT22;8984;49.268;12.302;2022-08-21T13:31:53;29.00;98.60
17728;DHT22;8984;49.268;12.302;2022-08-21T13:34:21;29.10;95.00
17728;DHT22;8984;49.268;12.302;2022-08-21T13:36:51;28.80;95.70
17728;DHT22;8984;49.268;12.302;2022-08-21T13:39:19;29.00;95.30
17728;DHT22;8984;49.268;12.302;2022-08-21T13:41:49;29.20;95.70
17728;DHT22;8984;49.268;12.302;2022-08-21T13:44:19;29.30;95.90
17728;DHT22;8984;49.268;12.302;2022-08-21T13:46:47;28.90;94.50
17728;DHT22;8984;49.268;12.302;2022-08-21T13:49:19;28.90;95.40
17728;DHT22;8984;49.268;12.302;2022-08-21T13:51:47;28.80;95.20
17728;DHT22;8984;49.268;12.302;2022-08-21T13:54:22;28.70;93.60
17728;DHT22;8984;49.268;12.302;2022-08-21T13:56:49;28.90;93.20
17728;DHT22;8984;49.268;12.302;2022-08-21T13:59:25;28.90;93.40
17728;DHT22;8984;49.268;12.302;2022-08-21T14:01:54;29.10;92.80
17728;DHT22;8984;49.268;12.302;2022-08-21T14:04:31;29.00;92.40
17728;DHT22;8984;49.268;12.302;2022-08-21T14:07:00;28.80;93.00
17728;DHT22;8984;49.268;12.302;2022-08-21T14:09:30;28.60;93.00
17728;DHT22;8984;49.268;12.302;2022-08-21T14:12:00;28.90;93.50
17728;DHT22;8984;49.268;12.302;2022-08-21T14:14:29;29.00;92.70
17728;DHT22;8984;49.268;12.302;2022-08-21T14:16:59;29.30;91.30
17728;DHT22;8984;49.268;12.302;2022-08-21T14:19:38;29.40;90.30
17728;DHT22;8984;49.268;12.302;2022-08-21T14:22:37;29.10;88.60
17728;DHT22;8984;49.268;12.302;2022-08-21T14:25:06;29.00;88.30
17728;DHT22;8984;49.268;12.302;2022-08-21T14:27:42;28.80;88.10
17728;DHT22;8984;49.268;12.302;2022-08-21T14:30:13;28.80;90.90
17728;DHT22;8984;49.268;12.302;2022-08-21T14:32:42;28.70;90.20
17728;DHT22;8984;49.268;12.302;2022-08-21T14:35:10;28.80;90.60
17728;DHT22;8984;49.268;12.302;2022-08-21T14:37:40;28.90;90.50
17728;DHT22;8984;49.268;12.302;2022-08-21T14:40:09;28.40;90.30
17728;DHT22;8984;49.268;12.302;2022-08-21T14:42:36;28.10;91.90
17728;DHT22;8984;49.268;12.302;2022-08-21T14:45:10;28.00;91.60
17728;DHT22;8984;49.268;12.302;2022-08-21T14:47:39;28.20;91.80
17728;DHT22;8984;49.268;12.302;2022-08-21T14:50:10;28.40;92.40
17728;DHT22;8984;49.268;12.302;2022-08-21T14:52:39;28.50;92.60
17728;DHT22;8984;49.268;12.302;2022-08-21T14:55:07;28.40;92.40
17728;DHT22;8984;49.268;12.302;2022-08-21T14:57:36;28.10;91.10
17728;DHT22;8984;49.268;12.302;2022-08-21T15:00:05;27.80;92.40
17728;DHT22;8984;49.268;12.302;2022-08-21T15:02:33;27.70;93.10
17728;DHT22;8984;49.268;12.302;2022-08-21T15:05:00;27.70;93.40
17728;DHT22;8984;49.268;12.302;2022-08-21T15:07:28;27.70;92.50
17728;DHT22;8984;49.268;12.302;2022-08-21T15:09:55;27.70;93.10
17728;DHT22;8984;49.268;12.302;2022-08-21T15:12:21;27.40;93.30
17728;DHT22;8984;49.268;12.302;2022-08-21T15:14:49;27.30;92.60
17728;DHT22;8984;49.268;12.302;2022-08-21T15:17:15;27.10;93.00
17728;DHT22;8984;49.268;12.302;2022-08-21T15:19:42;27.10;93.20
17728;DHT22;8984;49.268;12.302;2022-08-21T15:22:09;27.00;92.30
17728;DHT22;8984;49.268;12.302;2022-08-21T15:24:37;26.90;92.30
17728;DHT22;8984;49.268;12.302;2022-08-21T15:27:06;26.90;92.30
17728;DHT22;8984;49.268;12.302;2022-08-21T15:29:34;27.10;93.20
17728;DHT22;8984;49.268;12.302;2022-08-21T15:32:14;27.40;93.70
17728;DHT22;8984;49.268;12.302;2022-08-21T15:34:41;27.60;92.70
17728;DHT22;8984;49.268;12.302;2022-08-21T15:37:08;28.00;93.00
17728;DHT22;8984;49.268;12.302;2022-08-21T15:39:36;28.20;92.90
17728;DHT22;8984;49.268;12.302;2022-08-21T15:42:03;28.40;92.30
17728;DHT22;8984;49.268;12.302;2022-08-21T15:44:30;28.20;91.90
17728;DHT22;8984;49.268;12.302;2022-08-21T15:46:59;28.20;92.10
17728;DHT22;8984;49.268;12.302;2022-08-21T15:49:25;28.10;91.90